BON310 FMEE-FAOR
Flight info
| Callsign | BON310 |
|---|---|
| Flight time | 4h 0m |
| Altitude | 34000 |
| Route | GERAG2J GERAG UG653 DUPTO/N0468F360 UG653 SUNIR UT444 ETIVI DCT IMKAN UT446 IBGUB |
| Aircraft | B38M/M-SDE1FGHILORVWXY/HB1 |
Departure
| Time | 2026-04-30 09:15 |
|---|---|
| Airport | Roland Garros Airport (FMEE) |
Arrival
| Time | 2026-04-30 13:15 |
|---|---|
| Airport | O.R. Tambo International Airport (FAOR) |
| Time | Latitude | Longitude | Altitude | Speed | Heading |
|---|---|---|---|---|---|
| 2026-04-30 08:59 | -20.89136 | 55.51359 | 69 ft | 0 kts | 206° |
| 2026-04-30 09:07 | -20.89135 | 55.51359 | 77 ft | 1 kts | 206° |
| 2026-04-30 09:07 | -20.89113 | 55.51372 | 68 ft | 4 kts | 213° |
| 2026-04-30 09:08 | -20.89092 | 55.51389 | 70 ft | 4 kts | 227° |
| 2026-04-30 09:08 | -20.89078 | 55.51412 | 70 ft | 4 kts | 258° |
| 2026-04-30 09:08 | -20.89080 | 55.51430 | 69 ft | 1 kts | 296° |
| 2026-04-30 09:08 | -20.89081 | 55.51434 | 69 ft | 0 kts | 296° |
| 2026-04-30 09:11 | -20.89076 | 55.51423 | 71 ft | 4 kts | 297° |
| 2026-04-30 09:12 | -20.89050 | 55.51368 | 77 ft | 13 kts | 297° |
| 2026-04-30 09:12 | -20.89000 | 55.51262 | 74 ft | 18 kts | 297° |
| 2026-04-30 09:12 | -20.88946 | 55.51178 | 77 ft | 12 kts | 322° |
| 2026-04-30 09:12 | -20.88859 | 55.51155 | 67 ft | 17 kts | 345° |
| 2026-04-30 09:13 | -20.88742 | 55.51077 | 61 ft | 22 kts | 294° |
| 2026-04-30 09:13 | -20.88692 | 55.50918 | 54 ft | 23 kts | 285° |
| 2026-04-30 09:13 | -20.88656 | 55.50739 | 58 ft | 25 kts | 282° |
| 2026-04-30 09:13 | -20.88622 | 55.50586 | 51 ft | 20 kts | 285° |
| 2026-04-30 09:14 | -20.88581 | 55.50485 | 52 ft | 9 kts | 230° |
| 2026-04-30 09:14 | -20.88609 | 55.50510 | 50 ft | 7 kts | 97° |
| 2026-04-30 09:14 | -20.88620 | 55.50568 | 53 ft | 14 kts | 101° |
| 2026-04-30 09:14 | -20.88695 | 55.50938 | 59 ft | 87 kts | 103° |
| 2026-04-30 09:15 | -20.88870 | 55.51808 | 55 ft | 150 kts | 101° |
| 2026-04-30 09:15 | -20.89093 | 55.53009 | 445 ft | 172 kts | 100° |
| 2026-04-30 09:15 | -20.89317 | 55.54316 | 1129 ft | 180 kts | 97° |
| 2026-04-30 09:15 | -20.89393 | 55.55634 | 1934 ft | 185 kts | 105° |
| 2026-04-30 09:16 | -20.89723 | 55.57037 | 2440 ft | 205 kts | 107° |
| 2026-04-30 09:16 | -20.90103 | 55.58607 | 2867 ft | 233 kts | 105° |
| 2026-04-30 09:16 | -20.90493 | 55.60336 | 3538 ft | 245 kts | 104° |
| 2026-04-30 09:16 | -20.90896 | 55.62187 | 4281 ft | 261 kts | 104° |
| 2026-04-30 09:17 | -20.91305 | 55.64105 | 4991 ft | 272 kts | 104° |
| 2026-04-30 09:17 | -20.91725 | 55.66105 | 5947 ft | 275 kts | 104° |
| 2026-04-30 09:17 | -20.92141 | 55.68094 | 6747 ft | 280 kts | 103° |
| 2026-04-30 09:17 | -20.92566 | 55.70147 | 7546 ft | 285 kts | 103° |
| 2026-04-30 09:18 | -20.92999 | 55.72232 | 8329 ft | 290 kts | 103° |
| 2026-04-30 09:18 | -20.93754 | 55.74233 | 9095 ft | 293 kts | 127° |
| 2026-04-30 09:18 | -20.95232 | 55.75741 | 9795 ft | 298 kts | 150° |
| 2026-04-30 09:18 | -20.97045 | 55.76856 | 10418 ft | 307 kts | 151° |
| 2026-04-30 09:19 | -20.98949 | 55.78032 | 10744 ft | 326 kts | 151° |
| 2026-04-30 09:19 | -21.00963 | 55.79264 | 11128 ft | 341 kts | 151° |
| 2026-04-30 09:19 | -21.03046 | 55.80529 | 11756 ft | 344 kts | 152° |
| 2026-04-30 09:19 | -21.05133 | 55.81790 | 12517 ft | 345 kts | 152° |
| 2026-04-30 09:20 | -21.07236 | 55.83060 | 13150 ft | 349 kts | 151° |
| 2026-04-30 09:20 | -21.09361 | 55.84343 | 13822 ft | 351 kts | 152° |
| 2026-04-30 09:20 | -21.11492 | 55.85631 | 14449 ft | 352 kts | 152° |
| 2026-04-30 09:20 | -21.13633 | 55.86925 | 14993 ft | 355 kts | 153° |
| 2026-04-30 09:21 | -21.15793 | 55.88231 | 15507 ft | 359 kts | 153° |
| 2026-04-30 09:21 | -21.17979 | 55.89553 | 16021 ft | 362 kts | 153° |
| 2026-04-30 09:21 | -21.20178 | 55.90883 | 16557 ft | 365 kts | 153° |
| 2026-04-30 09:21 | -21.22428 | 55.92158 | 17029 ft | 366 kts | 161° |
| 2026-04-30 09:22 | -21.24886 | 55.92773 | 17526 ft | 363 kts | 179° |
| 2026-04-30 09:22 | -21.27389 | 55.92547 | 17971 ft | 362 kts | 196° |
| 2026-04-30 09:22 | -21.29713 | 55.91528 | 18427 ft | 362 kts | 212° |
| 2026-04-30 09:22 | -21.31683 | 55.89841 | 18808 ft | 365 kts | 227° |
| 2026-04-30 09:23 | -21.33269 | 55.87706 | 19189 ft | 368 kts | 233° |
| 2026-04-30 09:23 | -21.34770 | 55.85467 | 19561 ft | 371 kts | 234° |
| 2026-04-30 09:23 | -21.36236 | 55.83174 | 19959 ft | 374 kts | 236° |
| 2026-04-30 09:23 | -21.37685 | 55.80846 | 20351 ft | 377 kts | 236° |
| 2026-04-30 09:24 | -21.39130 | 55.78494 | 20780 ft | 378 kts | 237° |
| 2026-04-30 09:24 | -21.40569 | 55.76128 | 21195 ft | 380 kts | 237° |
| 2026-04-30 09:24 | -21.42014 | 55.73741 | 21553 ft | 383 kts | 237° |
| 2026-04-30 09:24 | -21.43469 | 55.71333 | 21938 ft | 386 kts | 237° |
| 2026-04-30 09:25 | -21.44932 | 55.68909 | 22310 ft | 388 kts | 237° |
| 2026-04-30 09:25 | -21.46364 | 55.66441 | 22674 ft | 391 kts | 244° |
| 2026-04-30 09:25 | -21.47230 | 55.63680 | 23046 ft | 393 kts | 261° |
| 2026-04-30 09:25 | -21.47307 | 55.60746 | 23387 ft | 397 kts | 276° |
| 2026-04-30 09:26 | -21.46878 | 55.57845 | 23720 ft | 400 kts | 278° |
| 2026-04-30 09:26 | -21.46383 | 55.54897 | 24022 ft | 403 kts | 279° |
| 2026-04-30 09:26 | -21.45855 | 55.51941 | 24347 ft | 404 kts | 279° |
| 2026-04-30 09:26 | -21.45309 | 55.48978 | 24653 ft | 406 kts | 279° |
| 2026-04-30 09:27 | -21.44748 | 55.45997 | 25003 ft | 408 kts | 279° |
| 2026-04-30 09:27 | -21.44181 | 55.43012 | 25374 ft | 410 kts | 279° |
| 2026-04-30 09:27 | -21.43607 | 55.40006 | 25714 ft | 412 kts | 279° |
| 2026-04-30 09:27 | -21.43240 | 55.36972 | 25995 ft | 410 kts | 267° |
| 2026-04-30 09:28 | -21.43527 | 55.33928 | 26304 ft | 411 kts | 262° |
| 2026-04-30 09:28 | -21.43866 | 55.30876 | 26545 ft | 413 kts | 262° |
| 2026-04-30 09:28 | -21.44226 | 55.27809 | 26864 ft | 414 kts | 261° |
| 2026-04-30 09:28 | -21.44601 | 55.24739 | 27146 ft | 416 kts | 261° |
| 2026-04-30 09:29 | -21.44984 | 55.21652 | 27414 ft | 418 kts | 261° |
| 2026-04-30 09:29 | -21.45372 | 55.18550 | 27726 ft | 420 kts | 261° |
| 2026-04-30 09:29 | -21.45761 | 55.15444 | 28032 ft | 421 kts | 261° |
| 2026-04-30 09:29 | -21.46151 | 55.12315 | 28296 ft | 423 kts | 261° |
| 2026-04-30 09:30 | -21.46543 | 55.09183 | 28571 ft | 424 kts | 261° |
| 2026-04-30 09:30 | -21.46934 | 55.06040 | 28851 ft | 425 kts | 261° |
| 2026-04-30 09:30 | -21.47327 | 55.02887 | 29125 ft | 427 kts | 261° |
| 2026-04-30 09:30 | -21.47719 | 54.99731 | 29448 ft | 427 kts | 261° |
| 2026-04-30 09:31 | -21.48111 | 54.96569 | 29692 ft | 428 kts | 261° |
| 2026-04-30 09:31 | -21.48504 | 54.93395 | 29931 ft | 430 kts | 261° |
| 2026-04-30 09:31 | -21.48899 | 54.90204 | 30161 ft | 431 kts | 261° |
| 2026-04-30 09:31 | -21.49293 | 54.87012 | 30356 ft | 433 kts | 261° |
| 2026-04-30 09:32 | -21.49688 | 54.83807 | 30553 ft | 434 kts | 261° |
| 2026-04-30 09:32 | -21.50084 | 54.80592 | 30747 ft | 435 kts | 261° |
| 2026-04-30 09:32 | -21.50481 | 54.77364 | 30930 ft | 437 kts | 261° |
| 2026-04-30 09:32 | -21.50878 | 54.74127 | 31106 ft | 438 kts | 261° |
| 2026-04-30 09:33 | -21.51276 | 54.70881 | 31276 ft | 440 kts | 261° |
| 2026-04-30 09:33 | -21.51669 | 54.67662 | 31448 ft | 441 kts | 261° |
| 2026-04-30 09:33 | -21.52069 | 54.64392 | 31663 ft | 442 kts | 261° |
| 2026-04-30 09:33 | -21.52467 | 54.61124 | 31906 ft | 441 kts | 261° |
| 2026-04-30 09:34 | -21.52865 | 54.57856 | 32157 ft | 441 kts | 261° |
| 2026-04-30 09:34 | -21.53261 | 54.54591 | 32410 ft | 441 kts | 261° |
| 2026-04-30 09:34 | -21.53657 | 54.51332 | 32662 ft | 440 kts | 261° |
| 2026-04-30 09:34 | -21.54051 | 54.48075 | 32906 ft | 440 kts | 262° |
| 2026-04-30 09:35 | -21.54445 | 54.44818 | 33141 ft | 439 kts | 262° |
| 2026-04-30 09:35 | -21.54837 | 54.41567 | 33389 ft | 439 kts | 262° |
| 2026-04-30 09:35 | -21.55229 | 54.38317 | 33633 ft | 439 kts | 262° |
| 2026-04-30 09:35 | -21.55493 | 54.36120 | 33799 ft | 438 kts | 262° |
| 2026-04-30 09:36 | -21.55883 | 54.32875 | 33993 ft | 438 kts | 262° |
| 2026-04-30 09:36 | -21.56273 | 54.29628 | 34010 ft | 438 kts | 262° |
| 2026-04-30 09:36 | -21.57038 | 54.23235 | 33998 ft | 433 kts | 262° |
| 2026-04-30 09:37 | -21.57803 | 54.16817 | 34007 ft | 434 kts | 262° |
| 2026-04-30 09:37 | -21.58567 | 54.10392 | 34007 ft | 433 kts | 262° |
| 2026-04-30 09:38 | -21.59328 | 54.03970 | 34006 ft | 434 kts | 262° |
| 2026-04-30 09:38 | -21.60087 | 53.97540 | 34004 ft | 434 kts | 262° |
| 2026-04-30 09:39 | -21.60844 | 53.91105 | 34010 ft | 434 kts | 262° |
| 2026-04-30 09:39 | -21.61599 | 53.84668 | 34007 ft | 434 kts | 262° |
| 2026-04-30 09:40 | -21.62352 | 53.78231 | 34010 ft | 434 kts | 262° |
| 2026-04-30 09:40 | -21.63102 | 53.71792 | 34004 ft | 435 kts | 262° |
| 2026-04-30 09:41 | -21.63851 | 53.65341 | 34008 ft | 435 kts | 262° |
| 2026-04-30 09:41 | -21.64597 | 53.58888 | 34008 ft | 435 kts | 262° |
| 2026-04-30 09:42 | -21.65340 | 53.52443 | 34013 ft | 433 kts | 262° |
| 2026-04-30 09:42 | -21.66078 | 53.46021 | 34053 ft | 433 kts | 262° |
| 2026-04-30 09:43 | -21.66814 | 53.39598 | 34057 ft | 433 kts | 262° |
| 2026-04-30 09:43 | -21.67547 | 53.33177 | 34062 ft | 433 kts | 262° |
| 2026-04-30 09:44 | -21.68278 | 53.26758 | 34060 ft | 433 kts | 262° |
| 2026-04-30 09:44 | -21.68985 | 53.20331 | 34058 ft | 434 kts | 266° |
| 2026-04-30 09:45 | -21.68779 | 53.17097 | 34041 ft | 436 kts | 281° |
| 2026-04-30 09:45 | -21.67750 | 53.14023 | 34066 ft | 442 kts | 295° |
| 2026-04-30 09:45 | -21.64119 | 53.08612 | 34059 ft | 450 kts | 304° |
| 2026-04-30 09:46 | -21.60211 | 53.03362 | 34059 ft | 450 kts | 305° |
| 2026-04-30 09:46 | -21.56252 | 52.98148 | 34058 ft | 450 kts | 305° |
| 2026-04-30 09:47 | -21.54429 | 52.95437 | 34039 ft | 445 kts | 294° |
| 2026-04-30 09:47 | -21.53320 | 52.92386 | 34050 ft | 436 kts | 280° |
| 2026-04-30 09:47 | -21.52962 | 52.89169 | 34048 ft | 433 kts | 266° |
| 2026-04-30 09:47 | -21.53325 | 52.85974 | 34081 ft | 432 kts | 258° |
| 2026-04-30 09:48 | -21.54561 | 52.79640 | 34053 ft | 433 kts | 256° |
| 2026-04-30 09:48 | -21.55970 | 52.73350 | 34061 ft | 433 kts | 255° |
| 2026-04-30 09:49 | -21.57425 | 52.67070 | 34062 ft | 433 kts | 255° |
| 2026-04-30 09:49 | -21.58888 | 52.60789 | 34064 ft | 433 kts | 255° |
| 2026-04-30 09:50 | -21.60349 | 52.54510 | 34057 ft | 433 kts | 255° |
| 2026-04-30 09:50 | -21.61809 | 52.48224 | 34060 ft | 434 kts | 255° |
| 2026-04-30 09:51 | -21.63267 | 52.41936 | 34067 ft | 432 kts | 255° |
| 2026-04-30 09:51 | -21.64715 | 52.35678 | 34062 ft | 431 kts | 255° |
| 2026-04-30 09:52 | -21.66161 | 52.29420 | 34063 ft | 431 kts | 255° |
| 2026-04-30 09:52 | -21.67596 | 52.23197 | 34062 ft | 432 kts | 255° |
| 2026-04-30 09:53 | -21.69038 | 52.16928 | 34063 ft | 432 kts | 255° |
| 2026-04-30 09:53 | -21.70478 | 52.10661 | 34069 ft | 432 kts | 255° |
| 2026-04-30 09:54 | -21.71917 | 52.04389 | 34061 ft | 432 kts | 255° |
| 2026-04-30 09:54 | -21.73353 | 51.98115 | 34077 ft | 432 kts | 255° |
| 2026-04-30 09:55 | -21.74787 | 51.91836 | 34090 ft | 432 kts | 255° |
| 2026-04-30 09:55 | -21.76209 | 51.85601 | 34072 ft | 427 kts | 255° |
| 2026-04-30 09:56 | -21.77623 | 51.79393 | 34070 ft | 428 kts | 255° |
| 2026-04-30 09:56 | -21.79036 | 51.73172 | 34072 ft | 428 kts | 255° |
| 2026-04-30 09:57 | -21.80448 | 51.66947 | 34076 ft | 428 kts | 255° |
| 2026-04-30 09:57 | -21.81857 | 51.60723 | 34076 ft | 428 kts | 255° |
| 2026-04-30 09:58 | -21.83264 | 51.54502 | 34070 ft | 428 kts | 255° |
| 2026-04-30 09:58 | -21.84668 | 51.48269 | 34074 ft | 428 kts | 255° |
| 2026-04-30 09:59 | -21.87465 | 51.35818 | 34073 ft | 425 kts | 255° |
| 2026-04-30 10:00 | -21.89540 | 51.26555 | 34082 ft | 425 kts | 255° |
| 2026-04-30 10:01 | -21.91612 | 51.17277 | 34078 ft | 425 kts | 255° |
| 2026-04-30 10:02 | -21.93679 | 51.07993 | 34079 ft | 425 kts | 255° |
| 2026-04-30 10:02 | -21.95054 | 51.01804 | 34082 ft | 425 kts | 255° |
| 2026-04-30 10:03 | -21.96428 | 50.95612 | 34082 ft | 425 kts | 255° |
| 2026-04-30 10:03 | -21.97799 | 50.89419 | 34092 ft | 425 kts | 255° |
| 2026-04-30 10:04 | -21.99151 | 50.83298 | 34079 ft | 422 kts | 255° |
| 2026-04-30 10:04 | -22.00509 | 50.77142 | 34085 ft | 422 kts | 255° |
| 2026-04-30 10:05 | -22.01864 | 50.70983 | 34084 ft | 422 kts | 255° |
| 2026-04-30 10:05 | -22.03218 | 50.64823 | 34079 ft | 422 kts | 255° |
| 2026-04-30 10:06 | -22.04570 | 50.58653 | 34084 ft | 424 kts | 255° |
| 2026-04-30 10:06 | -22.05923 | 50.52473 | 34085 ft | 423 kts | 255° |
| 2026-04-30 10:07 | -22.07273 | 50.46293 | 34089 ft | 424 kts | 255° |
| 2026-04-30 10:07 | -22.08620 | 50.40112 | 34081 ft | 424 kts | 255° |
| 2026-04-30 10:08 | -22.09968 | 50.33922 | 34083 ft | 424 kts | 255° |
| 2026-04-30 10:08 | -22.11313 | 50.27726 | 34091 ft | 424 kts | 255° |
| 2026-04-30 10:09 | -22.12656 | 50.21530 | 34086 ft | 424 kts | 255° |
| 2026-04-30 10:09 | -22.13998 | 50.15328 | 34084 ft | 425 kts | 255° |
| 2026-04-30 10:10 | -22.15341 | 50.09109 | 34095 ft | 426 kts | 255° |
| 2026-04-30 10:10 | -22.16681 | 50.02890 | 34093 ft | 426 kts | 255° |
| 2026-04-30 10:11 | -22.18019 | 49.96674 | 34089 ft | 425 kts | 255° |
| 2026-04-30 10:11 | -22.19357 | 49.90441 | 34115 ft | 427 kts | 255° |
| 2026-04-30 10:12 | -22.20685 | 49.84239 | 34103 ft | 422 kts | 255° |
| 2026-04-30 10:12 | -22.22006 | 49.78063 | 34097 ft | 423 kts | 255° |
| 2026-04-30 10:13 | -22.23326 | 49.71877 | 34089 ft | 423 kts | 255° |
| 2026-04-30 10:13 | -22.24647 | 49.65678 | 34093 ft | 424 kts | 255° |
| 2026-04-30 10:14 | -22.25964 | 49.59479 | 34098 ft | 424 kts | 255° |
| 2026-04-30 10:14 | -22.27938 | 49.50169 | 34093 ft | 425 kts | 255° |
| 2026-04-30 10:15 | -22.29256 | 49.43940 | 34094 ft | 426 kts | 255° |
| 2026-04-30 10:15 | -22.30570 | 49.37715 | 34102 ft | 424 kts | 255° |
| 2026-04-30 10:16 | -22.31876 | 49.31521 | 34099 ft | 423 kts | 255° |
| 2026-04-30 10:17 | -22.33835 | 49.22199 | 34096 ft | 425 kts | 256° |
| 2026-04-30 10:17 | -22.35782 | 49.12905 | 34102 ft | 425 kts | 256° |
| 2026-04-30 10:18 | -22.37083 | 49.06677 | 34091 ft | 425 kts | 256° |
| 2026-04-30 10:19 | -22.39037 | 48.97308 | 34095 ft | 426 kts | 256° |
| 2026-04-30 10:19 | -22.40335 | 48.91067 | 34118 ft | 425 kts | 256° |
| 2026-04-30 10:20 | -22.41622 | 48.84863 | 34102 ft | 422 kts | 256° |
| 2026-04-30 10:20 | -22.43546 | 48.75568 | 34104 ft | 423 kts | 256° |
| 2026-04-30 10:21 | -22.44827 | 48.69366 | 34109 ft | 423 kts | 256° |
| 2026-04-30 10:21 | -22.45889 | 48.64214 | 34110 ft | 423 kts | 256° |
| 2026-04-30 10:22 | -22.47167 | 48.58002 | 34104 ft | 424 kts | 256° |
| 2026-04-30 10:22 | -22.48443 | 48.51786 | 34111 ft | 423 kts | 256° |
| 2026-04-30 10:23 | -22.49717 | 48.45568 | 34114 ft | 423 kts | 256° |
| 2026-04-30 10:23 | -22.50985 | 48.39365 | 34107 ft | 422 kts | 256° |
| 2026-04-30 10:24 | -22.52250 | 48.33167 | 34106 ft | 422 kts | 256° |
| 2026-04-30 10:24 | -22.53514 | 48.26962 | 34115 ft | 422 kts | 256° |
| 2026-04-30 10:25 | -22.54775 | 48.20761 | 34107 ft | 423 kts | 256° |
| 2026-04-30 10:25 | -22.56038 | 48.14539 | 34112 ft | 424 kts | 256° |
| 2026-04-30 10:26 | -22.57299 | 48.08312 | 34123 ft | 424 kts | 256° |
| 2026-04-30 10:26 | -22.58557 | 48.02087 | 34114 ft | 423 kts | 256° |
| 2026-04-30 10:27 | -22.59810 | 47.95853 | 34125 ft | 424 kts | 256° |
| 2026-04-30 10:27 | -22.61062 | 47.89633 | 34118 ft | 423 kts | 256° |
| 2026-04-30 10:28 | -22.62312 | 47.83412 | 34124 ft | 423 kts | 256° |
| 2026-04-30 10:28 | -22.63560 | 47.77188 | 34119 ft | 424 kts | 256° |
| 2026-04-30 10:29 | -22.64802 | 47.70985 | 34121 ft | 425 kts | 256° |
| 2026-04-30 10:29 | -22.66048 | 47.64741 | 34120 ft | 424 kts | 256° |
| 2026-04-30 10:30 | -22.67293 | 47.58493 | 34114 ft | 424 kts | 257° |
| 2026-04-30 10:30 | -22.68539 | 47.52230 | 34132 ft | 426 kts | 256° |
| 2026-04-30 10:31 | -22.69779 | 47.45979 | 34125 ft | 424 kts | 257° |
| 2026-04-30 10:31 | -22.71016 | 47.39732 | 34127 ft | 424 kts | 257° |
| 2026-04-30 10:32 | -22.72250 | 47.33485 | 34127 ft | 425 kts | 257° |
| 2026-04-30 10:32 | -22.73485 | 47.27219 | 34141 ft | 425 kts | 257° |
| 2026-04-30 10:33 | -22.74717 | 47.20958 | 34127 ft | 425 kts | 257° |
| 2026-04-30 10:33 | -22.75946 | 47.14696 | 34131 ft | 426 kts | 257° |
| 2026-04-30 10:34 | -22.77177 | 47.08413 | 34127 ft | 426 kts | 257° |
| 2026-04-30 10:34 | -22.78402 | 47.02147 | 34120 ft | 424 kts | 257° |
| 2026-04-30 10:35 | -22.79619 | 46.95901 | 34119 ft | 424 kts | 257° |
| 2026-04-30 10:35 | -22.80838 | 46.89637 | 34122 ft | 425 kts | 257° |
| 2026-04-30 10:36 | -22.82048 | 46.83411 | 34119 ft | 425 kts | 257° |
| 2026-04-30 10:36 | -22.83262 | 46.77140 | 34120 ft | 425 kts | 257° |
| 2026-04-30 10:37 | -22.84476 | 46.70864 | 34125 ft | 425 kts | 257° |
| 2026-04-30 10:37 | -22.85686 | 46.64592 | 34119 ft | 425 kts | 257° |
| 2026-04-30 10:38 | -22.86892 | 46.58323 | 34122 ft | 423 kts | 257° |
| 2026-04-30 10:38 | -22.88091 | 46.52079 | 34120 ft | 424 kts | 257° |
| 2026-04-30 10:39 | -22.89292 | 46.45814 | 34119 ft | 424 kts | 257° |
| 2026-04-30 10:39 | -22.90489 | 46.39551 | 34112 ft | 424 kts | 257° |
| 2026-04-30 10:40 | -22.91684 | 46.33287 | 34122 ft | 424 kts | 257° |
| 2026-04-30 10:40 | -22.92878 | 46.27017 | 34126 ft | 424 kts | 257° |
| 2026-04-30 10:41 | -22.94066 | 46.20758 | 34108 ft | 424 kts | 257° |
| 2026-04-30 10:41 | -22.95254 | 46.14491 | 34095 ft | 423 kts | 257° |
| 2026-04-30 10:42 | -22.96436 | 46.08243 | 34083 ft | 423 kts | 257° |
| 2026-04-30 10:42 | -22.97615 | 46.01986 | 34090 ft | 423 kts | 257° |
| 2026-04-30 10:43 | -22.98794 | 45.95725 | 34068 ft | 424 kts | 257° |
| 2026-04-30 10:43 | -22.99973 | 45.89447 | 34070 ft | 425 kts | 257° |
| 2026-04-30 10:44 | -23.01150 | 45.83162 | 34059 ft | 425 kts | 258° |
| 2026-04-30 10:44 | -23.02325 | 45.76881 | 34053 ft | 425 kts | 258° |
| 2026-04-30 10:45 | -23.03498 | 45.70586 | 34055 ft | 426 kts | 258° |
| 2026-04-30 10:45 | -23.04672 | 45.64281 | 34044 ft | 426 kts | 258° |
| 2026-04-30 10:46 | -23.05843 | 45.57974 | 34049 ft | 426 kts | 258° |
| 2026-04-30 10:46 | -23.07005 | 45.51696 | 34049 ft | 428 kts | 258° |
| 2026-04-30 10:47 | -23.08175 | 45.45368 | 34049 ft | 427 kts | 258° |
| 2026-04-30 10:47 | -23.09341 | 45.39041 | 34052 ft | 427 kts | 258° |
| 2026-04-30 10:48 | -23.10508 | 45.32701 | 34061 ft | 429 kts | 258° |
| 2026-04-30 10:48 | -23.11668 | 45.26377 | 34054 ft | 425 kts | 258° |
| 2026-04-30 10:49 | -23.12822 | 45.20076 | 34049 ft | 426 kts | 258° |
| 2026-04-30 10:49 | -23.13975 | 45.13759 | 34048 ft | 427 kts | 258° |
| 2026-04-30 10:50 | -23.15129 | 45.07425 | 34049 ft | 427 kts | 258° |
| 2026-04-30 10:50 | -23.16279 | 45.01098 | 34058 ft | 427 kts | 258° |
| 2026-04-30 10:51 | -23.17428 | 44.94766 | 34053 ft | 427 kts | 259° |
| 2026-04-30 10:51 | -23.18572 | 44.88439 | 34055 ft | 427 kts | 259° |
| 2026-04-30 10:52 | -23.19717 | 44.82100 | 34052 ft | 427 kts | 259° |
| 2026-04-30 10:52 | -23.20857 | 44.75768 | 34051 ft | 427 kts | 259° |
| 2026-04-30 10:53 | -23.21996 | 44.69427 | 34051 ft | 427 kts | 259° |
| 2026-04-30 10:53 | -23.23132 | 44.63086 | 34052 ft | 427 kts | 259° |
| 2026-04-30 10:54 | -23.24265 | 44.56751 | 34047 ft | 426 kts | 259° |
| 2026-04-30 10:54 | -23.25393 | 44.50421 | 34047 ft | 426 kts | 259° |
| 2026-04-30 10:55 | -23.26519 | 44.44091 | 34050 ft | 426 kts | 259° |
| 2026-04-30 10:55 | -23.27635 | 44.37805 | 34051 ft | 427 kts | 259° |
| 2026-04-30 10:56 | -23.28758 | 44.31463 | 34053 ft | 427 kts | 259° |
| 2026-04-30 10:56 | -23.29878 | 44.25122 | 34050 ft | 427 kts | 259° |
| 2026-04-30 10:57 | -23.30995 | 44.18779 | 34045 ft | 427 kts | 259° |
| 2026-04-30 10:57 | -23.32111 | 44.12435 | 34043 ft | 427 kts | 259° |
| 2026-04-30 10:58 | -23.33224 | 44.06091 | 34054 ft | 427 kts | 259° |
| 2026-04-30 10:58 | -23.34336 | 43.99737 | 34053 ft | 428 kts | 259° |
| 2026-04-30 10:59 | -23.35449 | 43.93364 | 34059 ft | 429 kts | 259° |
| 2026-04-30 10:59 | -23.36559 | 43.86992 | 34070 ft | 429 kts | 259° |
| 2026-04-30 11:00 | -23.37667 | 43.80617 | 34077 ft | 429 kts | 259° |
| 2026-04-30 11:00 | -23.38774 | 43.74234 | 34076 ft | 429 kts | 259° |
| 2026-04-30 11:01 | -23.40319 | 43.67964 | 34084 ft | 430 kts | 255° |
| 2026-04-30 11:01 | -23.41952 | 43.61707 | 34080 ft | 429 kts | 255° |
| 2026-04-30 11:02 | -23.43563 | 43.55450 | 34068 ft | 429 kts | 255° |
| 2026-04-30 11:02 | -23.45168 | 43.49193 | 34066 ft | 429 kts | 255° |
| 2026-04-30 11:03 | -23.46770 | 43.42935 | 34064 ft | 429 kts | 255° |
| 2026-04-30 11:04 | -23.49169 | 43.33549 | 34068 ft | 429 kts | 255° |
| 2026-04-30 11:04 | -23.50764 | 43.27289 | 34067 ft | 429 kts | 255° |
| 2026-04-30 11:05 | -23.52357 | 43.21028 | 34076 ft | 429 kts | 256° |
| 2026-04-30 11:05 | -23.53937 | 43.14806 | 34074 ft | 429 kts | 256° |
| 2026-04-30 11:06 | -23.55526 | 43.08541 | 34076 ft | 429 kts | 256° |
| 2026-04-30 11:06 | -23.57112 | 43.02274 | 34082 ft | 429 kts | 256° |
| 2026-04-30 11:07 | -23.58695 | 42.96007 | 34084 ft | 429 kts | 256° |
| 2026-04-30 11:07 | -23.60274 | 42.89743 | 34083 ft | 429 kts | 256° |
| 2026-04-30 11:08 | -23.61852 | 42.83474 | 34085 ft | 429 kts | 256° |
| 2026-04-30 11:08 | -23.63427 | 42.77205 | 34089 ft | 429 kts | 256° |
| 2026-04-30 11:09 | -23.64999 | 42.70935 | 34088 ft | 429 kts | 256° |
| 2026-04-30 11:09 | -23.66569 | 42.64663 | 34093 ft | 429 kts | 256° |
| 2026-04-30 11:10 | -23.68136 | 42.58389 | 34095 ft | 429 kts | 256° |
| 2026-04-30 11:10 | -23.69437 | 42.53174 | 34096 ft | 429 kts | 256° |
| 2026-04-30 11:11 | -23.71001 | 42.46894 | 34101 ft | 429 kts | 256° |
| 2026-04-30 11:11 | -23.72561 | 42.40614 | 34102 ft | 429 kts | 256° |
| 2026-04-30 11:12 | -23.74369 | 42.33326 | 34102 ft | 427 kts | 256° |
| 2026-04-30 11:12 | -23.75668 | 42.28078 | 34105 ft | 428 kts | 256° |
| 2026-04-30 11:13 | -23.77206 | 42.21853 | 34105 ft | 427 kts | 256° |
| 2026-04-30 11:13 | -23.78750 | 42.15593 | 34102 ft | 426 kts | 256° |
| 2026-04-30 11:14 | -23.80288 | 42.09348 | 34108 ft | 426 kts | 256° |
| 2026-04-30 11:14 | -23.81824 | 42.03099 | 34108 ft | 426 kts | 256° |
| 2026-04-30 11:15 | -23.83357 | 41.96848 | 34117 ft | 426 kts | 256° |
| 2026-04-30 11:15 | -23.84886 | 41.90605 | 34111 ft | 425 kts | 256° |
| 2026-04-30 11:16 | -23.86411 | 41.84364 | 34110 ft | 425 kts | 256° |
| 2026-04-30 11:16 | -23.87935 | 41.78116 | 34115 ft | 425 kts | 256° |
| 2026-04-30 11:17 | -23.89455 | 41.71870 | 34121 ft | 426 kts | 256° |
| 2026-04-30 11:17 | -23.90975 | 41.65616 | 34119 ft | 426 kts | 256° |
| 2026-04-30 11:18 | -23.92493 | 41.59356 | 34119 ft | 428 kts | 256° |
| 2026-04-30 11:18 | -23.94774 | 41.49928 | 34125 ft | 428 kts | 256° |
| 2026-04-30 11:19 | -23.96291 | 41.43641 | 34123 ft | 427 kts | 256° |
| 2026-04-30 11:19 | -23.97805 | 41.37359 | 34126 ft | 427 kts | 256° |
| 2026-04-30 11:20 | -23.99316 | 41.31072 | 34126 ft | 428 kts | 256° |
| 2026-04-30 11:20 | -24.00826 | 41.24781 | 34126 ft | 428 kts | 256° |
| 2026-04-30 11:21 | -24.02334 | 41.18487 | 34127 ft | 428 kts | 256° |
| 2026-04-30 11:21 | -24.03838 | 41.12193 | 34129 ft | 428 kts | 256° |
| 2026-04-30 11:22 | -24.05330 | 41.05939 | 34128 ft | 427 kts | 256° |
| 2026-04-30 11:22 | -24.06829 | 40.99645 | 34128 ft | 428 kts | 256° |
| 2026-04-30 11:23 | -24.08325 | 40.93349 | 34128 ft | 428 kts | 256° |
| 2026-04-30 11:24 | -24.10562 | 40.83914 | 34123 ft | 426 kts | 256° |
| 2026-04-30 11:24 | -24.12047 | 40.77634 | 34130 ft | 426 kts | 257° |
| 2026-04-30 11:25 | -24.14271 | 40.68207 | 34130 ft | 426 kts | 257° |
| 2026-04-30 11:26 | -24.17227 | 40.55635 | 34133 ft | 426 kts | 257° |
| 2026-04-30 11:26 | -24.18700 | 40.49348 | 34135 ft | 426 kts | 257° |
| 2026-04-30 11:27 | -24.20170 | 40.43066 | 34137 ft | 425 kts | 257° |
| 2026-04-30 11:27 | -24.21633 | 40.36798 | 34138 ft | 425 kts | 257° |
| 2026-04-30 11:28 | -24.23816 | 40.27435 | 34134 ft | 425 kts | 257° |
| 2026-04-30 11:29 | -24.25273 | 40.21168 | 34133 ft | 424 kts | 257° |
| 2026-04-30 11:29 | -24.27447 | 40.11793 | 34137 ft | 423 kts | 257° |
| 2026-04-30 11:30 | -24.29617 | 40.02412 | 34148 ft | 423 kts | 257° |
| 2026-04-30 11:31 | -24.30678 | 39.96083 | 34158 ft | 422 kts | 262° |
| 2026-04-30 11:31 | -24.31614 | 39.89727 | 34145 ft | 422 kts | 261° |
| 2026-04-30 11:32 | -24.32574 | 39.83373 | 34144 ft | 422 kts | 261° |
| 2026-04-30 11:32 | -24.33535 | 39.77019 | 34140 ft | 422 kts | 261° |
| 2026-04-30 11:33 | -24.34972 | 39.67483 | 34144 ft | 422 kts | 261° |
| 2026-04-30 11:33 | -24.35926 | 39.61132 | 34147 ft | 422 kts | 261° |
| 2026-04-30 11:34 | -24.36877 | 39.54779 | 34147 ft | 422 kts | 261° |
| 2026-04-30 11:34 | -24.37823 | 39.48442 | 34141 ft | 421 kts | 261° |
| 2026-04-30 11:35 | -24.38767 | 39.42104 | 34142 ft | 421 kts | 261° |
| 2026-04-30 11:35 | -24.39708 | 39.35758 | 34126 ft | 422 kts | 261° |
| 2026-04-30 11:36 | -24.40651 | 39.29386 | 34146 ft | 424 kts | 261° |
| 2026-04-30 11:36 | -24.41593 | 39.23000 | 34149 ft | 424 kts | 261° |
| 2026-04-30 11:37 | -24.42533 | 39.16613 | 34145 ft | 424 kts | 261° |
| 2026-04-30 11:37 | -24.43469 | 39.10230 | 34149 ft | 423 kts | 261° |
| 2026-04-30 11:38 | -24.44394 | 39.03900 | 34145 ft | 423 kts | 261° |
| 2026-04-30 11:38 | -24.45323 | 38.97527 | 34153 ft | 423 kts | 261° |
| 2026-04-30 11:39 | -24.46255 | 38.91112 | 34162 ft | 423 kts | 261° |
| 2026-04-30 11:39 | -24.47172 | 38.84785 | 34154 ft | 422 kts | 261° |
| 2026-04-30 11:40 | -24.48097 | 38.78378 | 34159 ft | 422 kts | 262° |
| 2026-04-30 11:40 | -24.49007 | 38.72058 | 34157 ft | 422 kts | 262° |
| 2026-04-30 11:41 | -24.49921 | 38.65694 | 34153 ft | 422 kts | 262° |
| 2026-04-30 11:41 | -24.50832 | 38.59333 | 34152 ft | 421 kts | 262° |
| 2026-04-30 11:42 | -24.51744 | 38.52938 | 34153 ft | 421 kts | 262° |
| 2026-04-30 11:42 | -24.52642 | 38.46628 | 34147 ft | 421 kts | 262° |
| 2026-04-30 11:43 | -24.53543 | 38.40273 | 34156 ft | 421 kts | 262° |
| 2026-04-30 11:43 | -24.54441 | 38.33916 | 34149 ft | 421 kts | 262° |
| 2026-04-30 11:44 | -24.55337 | 38.27562 | 34147 ft | 421 kts | 262° |
| 2026-04-30 11:44 | -24.56230 | 38.21206 | 34150 ft | 421 kts | 262° |
| 2026-04-30 11:45 | -24.57120 | 38.14849 | 34157 ft | 421 kts | 262° |
| 2026-04-30 11:45 | -24.58006 | 38.08500 | 34151 ft | 420 kts | 262° |
| 2026-04-30 11:46 | -24.58890 | 38.02153 | 34151 ft | 420 kts | 262° |
| 2026-04-30 11:46 | -24.59771 | 37.95803 | 34151 ft | 420 kts | 262° |
| 2026-04-30 11:47 | -24.60649 | 37.89454 | 34153 ft | 420 kts | 262° |
| 2026-04-30 11:47 | -24.61524 | 37.83105 | 34154 ft | 420 kts | 262° |
| 2026-04-30 11:48 | -24.62398 | 37.76745 | 34154 ft | 422 kts | 262° |
| 2026-04-30 11:48 | -24.63273 | 37.70357 | 34170 ft | 422 kts | 262° |
| 2026-04-30 11:49 | -24.64138 | 37.64021 | 34165 ft | 422 kts | 262° |
| 2026-04-30 11:49 | -24.65006 | 37.57643 | 34152 ft | 422 kts | 262° |
| 2026-04-30 11:50 | -24.65872 | 37.51263 | 34152 ft | 422 kts | 262° |
| 2026-04-30 11:50 | -24.66734 | 37.44882 | 34152 ft | 422 kts | 262° |
| 2026-04-30 11:51 | -24.67594 | 37.38501 | 34159 ft | 422 kts | 262° |
| 2026-04-30 11:51 | -24.68451 | 37.32123 | 34152 ft | 422 kts | 262° |
| 2026-04-30 11:52 | -24.69305 | 37.25744 | 34163 ft | 422 kts | 262° |
| 2026-04-30 11:52 | -24.70156 | 37.19363 | 34158 ft | 421 kts | 262° |
| 2026-04-30 11:53 | -24.71004 | 37.12991 | 34158 ft | 421 kts | 262° |
| 2026-04-30 11:53 | -24.71850 | 37.06614 | 34162 ft | 421 kts | 262° |
| 2026-04-30 11:54 | -24.72692 | 37.00240 | 34159 ft | 421 kts | 262° |
| 2026-04-30 11:54 | -24.73531 | 36.93864 | 34161 ft | 421 kts | 262° |
| 2026-04-30 11:55 | -24.74363 | 36.87532 | 34161 ft | 421 kts | 262° |
| 2026-04-30 11:55 | -24.75199 | 36.81156 | 34158 ft | 421 kts | 262° |
| 2026-04-30 11:56 | -24.76032 | 36.74777 | 34160 ft | 421 kts | 262° |
| 2026-04-30 11:56 | -24.76861 | 36.68401 | 34158 ft | 420 kts | 263° |
| 2026-04-30 11:57 | -24.77687 | 36.62034 | 34164 ft | 420 kts | 263° |
| 2026-04-30 11:57 | -24.78500 | 36.55665 | 34161 ft | 420 kts | 263° |
| 2026-04-30 11:58 | -24.79315 | 36.49294 | 34172 ft | 420 kts | 263° |
| 2026-04-30 11:58 | -24.80126 | 36.42939 | 34157 ft | 418 kts | 263° |
| 2026-04-30 11:59 | -24.80933 | 36.36595 | 34159 ft | 419 kts | 263° |
| 2026-04-30 11:59 | -24.81738 | 36.30244 | 34162 ft | 419 kts | 263° |
| 2026-04-30 12:00 | -24.82540 | 36.23895 | 34170 ft | 419 kts | 263° |
| 2026-04-30 12:00 | -24.83339 | 36.17551 | 34147 ft | 418 kts | 263° |
| 2026-04-30 12:01 | -24.84138 | 36.11177 | 34166 ft | 421 kts | 263° |
| 2026-04-30 12:01 | -24.84931 | 36.04836 | 34158 ft | 421 kts | 263° |
| 2026-04-30 12:02 | -24.85726 | 35.98449 | 34158 ft | 421 kts | 263° |
| 2026-04-30 12:02 | -24.86519 | 35.92061 | 34156 ft | 421 kts | 263° |
| 2026-04-30 12:03 | -24.87570 | 35.83559 | 34156 ft | 421 kts | 263° |
| 2026-04-30 12:04 | -24.88356 | 35.77171 | 34162 ft | 421 kts | 263° |
| 2026-04-30 12:04 | -24.89139 | 35.70786 | 34157 ft | 420 kts | 263° |
| 2026-04-30 12:05 | -24.89919 | 35.64403 | 34156 ft | 420 kts | 263° |
| 2026-04-30 12:05 | -24.90696 | 35.58017 | 34156 ft | 421 kts | 263° |
| 2026-04-30 12:06 | -24.91471 | 35.51632 | 34154 ft | 421 kts | 263° |
| 2026-04-30 12:06 | -24.92243 | 35.45247 | 34154 ft | 420 kts | 263° |
| 2026-04-30 12:07 | -24.93012 | 35.38864 | 34157 ft | 420 kts | 263° |
| 2026-04-30 12:07 | -24.93778 | 35.32480 | 34153 ft | 420 kts | 263° |
| 2026-04-30 12:08 | -24.94540 | 35.26103 | 34153 ft | 420 kts | 263° |
| 2026-04-30 12:08 | -24.95300 | 35.19725 | 34152 ft | 419 kts | 263° |
| 2026-04-30 12:09 | -24.96055 | 35.13362 | 34148 ft | 419 kts | 263° |
| 2026-04-30 12:09 | -24.96808 | 35.06993 | 34148 ft | 419 kts | 263° |
| 2026-04-30 12:10 | -24.97558 | 35.00623 | 34148 ft | 419 kts | 263° |
| 2026-04-30 12:10 | -24.98305 | 34.94255 | 34148 ft | 418 kts | 264° |
| 2026-04-30 12:11 | -24.99049 | 34.87897 | 34149 ft | 418 kts | 264° |
| 2026-04-30 12:11 | -24.99789 | 34.81540 | 34143 ft | 418 kts | 264° |
| 2026-04-30 12:12 | -25.00528 | 34.75179 | 34143 ft | 418 kts | 264° |
| 2026-04-30 12:12 | -25.01264 | 34.68820 | 34143 ft | 418 kts | 264° |
| 2026-04-30 12:13 | -25.01996 | 34.62466 | 34143 ft | 418 kts | 264° |
| 2026-04-30 12:13 | -25.02724 | 34.56114 | 34143 ft | 418 kts | 264° |
| 2026-04-30 12:14 | -25.03449 | 34.49759 | 34140 ft | 418 kts | 264° |
| 2026-04-30 12:14 | -25.04173 | 34.43390 | 34145 ft | 420 kts | 264° |
| 2026-04-30 12:15 | -25.04897 | 34.37005 | 34138 ft | 419 kts | 264° |
| 2026-04-30 12:15 | -25.05618 | 34.30625 | 34139 ft | 419 kts | 264° |
| 2026-04-30 12:16 | -25.06336 | 34.24238 | 34139 ft | 419 kts | 264° |
| 2026-04-30 12:16 | -25.07051 | 34.17857 | 34141 ft | 419 kts | 264° |
| 2026-04-30 12:17 | -25.08111 | 34.08344 | 34135 ft | 419 kts | 264° |
| 2026-04-30 12:17 | -25.08818 | 34.01974 | 34135 ft | 418 kts | 264° |
| 2026-04-30 12:18 | -25.09522 | 33.95602 | 34132 ft | 418 kts | 264° |
| 2026-04-30 12:18 | -25.10224 | 33.89229 | 34132 ft | 418 kts | 264° |
| 2026-04-30 12:19 | -25.10921 | 33.82868 | 34133 ft | 418 kts | 264° |
| 2026-04-30 12:19 | -25.11616 | 33.76502 | 34127 ft | 418 kts | 264° |
| 2026-04-30 12:20 | -25.12308 | 33.70136 | 34154 ft | 418 kts | 265° |
| 2026-04-30 12:20 | -25.12997 | 33.63772 | 34160 ft | 418 kts | 265° |
| 2026-04-30 12:21 | -25.13683 | 33.57414 | 34154 ft | 417 kts | 265° |
| 2026-04-30 12:21 | -25.14367 | 33.51050 | 34151 ft | 417 kts | 265° |
| 2026-04-30 12:22 | -25.15047 | 33.44688 | 34144 ft | 417 kts | 265° |
| 2026-04-30 12:22 | -25.15725 | 33.38325 | 34135 ft | 417 kts | 265° |
| 2026-04-30 12:23 | -25.16401 | 33.31961 | 34131 ft | 417 kts | 265° |
| 2026-04-30 12:23 | -25.17073 | 33.25594 | 34124 ft | 417 kts | 265° |
| 2026-04-30 12:24 | -25.17743 | 33.19231 | 34121 ft | 418 kts | 265° |
| 2026-04-30 12:24 | -25.18410 | 33.12865 | 34125 ft | 417 kts | 265° |
| 2026-04-30 12:25 | -25.19074 | 33.06503 | 34121 ft | 417 kts | 265° |
| 2026-04-30 12:25 | -25.19730 | 33.00185 | 34118 ft | 417 kts | 265° |
| 2026-04-30 12:26 | -25.20389 | 32.93823 | 34115 ft | 417 kts | 265° |
| 2026-04-30 12:26 | -25.21044 | 32.87459 | 34125 ft | 417 kts | 265° |
| 2026-04-30 12:27 | -25.21697 | 32.81101 | 34113 ft | 416 kts | 265° |
| 2026-04-30 12:27 | -25.22346 | 32.74748 | 34118 ft | 417 kts | 265° |
| 2026-04-30 12:28 | -25.22993 | 32.68386 | 34112 ft | 418 kts | 265° |
| 2026-04-30 12:28 | -25.23640 | 32.61996 | 34112 ft | 419 kts | 265° |
| 2026-04-30 12:29 | -25.24283 | 32.55617 | 34106 ft | 417 kts | 266° |
| 2026-04-30 12:29 | -25.24922 | 32.49249 | 34113 ft | 417 kts | 266° |
| 2026-04-30 12:30 | -25.25559 | 32.42877 | 34114 ft | 417 kts | 266° |
| 2026-04-30 12:30 | -25.26193 | 32.36506 | 34112 ft | 417 kts | 266° |
| 2026-04-30 12:31 | -25.26824 | 32.30138 | 34114 ft | 417 kts | 266° |
| 2026-04-30 12:31 | -25.27452 | 32.23781 | 34122 ft | 416 kts | 266° |
| 2026-04-30 12:32 | -25.28076 | 32.17421 | 34126 ft | 416 kts | 266° |
| 2026-04-30 12:32 | -25.28698 | 32.11062 | 34124 ft | 416 kts | 266° |
| 2026-04-30 12:33 | -25.29317 | 32.04699 | 34135 ft | 416 kts | 266° |
| 2026-04-30 12:33 | -25.29932 | 31.98354 | 34134 ft | 415 kts | 266° |
| 2026-04-30 12:34 | -25.30544 | 31.92004 | 34135 ft | 415 kts | 266° |
| 2026-04-30 12:34 | -25.31149 | 31.85703 | 34139 ft | 415 kts | 266° |
| 2026-04-30 12:35 | -25.31756 | 31.79357 | 34154 ft | 415 kts | 266° |
| 2026-04-30 12:35 | -25.32359 | 31.73015 | 34153 ft | 415 kts | 266° |
| 2026-04-30 12:36 | -25.32960 | 31.66672 | 34153 ft | 415 kts | 266° |
| 2026-04-30 12:36 | -25.33557 | 31.60333 | 34164 ft | 415 kts | 266° |
| 2026-04-30 12:37 | -25.34153 | 31.53987 | 34161 ft | 415 kts | 266° |
| 2026-04-30 12:37 | -25.34745 | 31.47645 | 34172 ft | 415 kts | 267° |
| 2026-04-30 12:38 | -25.35335 | 31.41308 | 34174 ft | 414 kts | 267° |
| 2026-04-30 12:38 | -25.35923 | 31.34965 | 34182 ft | 415 kts | 267° |
| 2026-04-30 12:39 | -25.36507 | 31.28631 | 34185 ft | 414 kts | 267° |
| 2026-04-30 12:39 | -25.37089 | 31.22292 | 34195 ft | 414 kts | 267° |
| 2026-04-30 12:40 | -25.37667 | 31.15976 | 34190 ft | 413 kts | 267° |
| 2026-04-30 12:40 | -25.38456 | 31.09681 | 34178 ft | 416 kts | 258° |
| 2026-04-30 12:41 | -25.39948 | 31.03485 | 34172 ft | 417 kts | 259° |
| 2026-04-30 12:41 | -25.41437 | 30.97284 | 34181 ft | 417 kts | 259° |
| 2026-04-30 12:42 | -25.42925 | 30.91086 | 34217 ft | 416 kts | 259° |
| 2026-04-30 12:42 | -25.44400 | 30.84936 | 34212 ft | 416 kts | 259° |
| 2026-04-30 12:43 | -25.45883 | 30.78741 | 34212 ft | 416 kts | 259° |
| 2026-04-30 12:43 | -25.47363 | 30.72545 | 34223 ft | 416 kts | 259° |
| 2026-04-30 12:44 | -25.48840 | 30.66350 | 34216 ft | 416 kts | 259° |
| 2026-04-30 12:44 | -25.50315 | 30.60150 | 34226 ft | 415 kts | 259° |
| 2026-04-30 12:45 | -25.51784 | 30.53958 | 34235 ft | 416 kts | 259° |
| 2026-04-30 12:45 | -25.53252 | 30.47753 | 34237 ft | 417 kts | 259° |
| 2026-04-30 12:46 | -25.54719 | 30.41544 | 34243 ft | 417 kts | 259° |
| 2026-04-30 12:46 | -25.56180 | 30.35347 | 34255 ft | 415 kts | 260° |
| 2026-04-30 12:47 | -25.57632 | 30.29175 | 34247 ft | 414 kts | 260° |
| 2026-04-30 12:47 | -25.59083 | 30.22998 | 34262 ft | 414 kts | 260° |
| 2026-04-30 12:48 | -25.60530 | 30.16823 | 34266 ft | 414 kts | 260° |
| 2026-04-30 12:48 | -25.61974 | 30.10649 | 34271 ft | 414 kts | 260° |
| 2026-04-30 12:49 | -25.63404 | 30.04519 | 34282 ft | 413 kts | 260° |
| 2026-04-30 12:49 | -25.64841 | 29.98351 | 34274 ft | 413 kts | 260° |
| 2026-04-30 12:50 | -25.65549 | 29.95308 | 34272 ft | 400 kts | 260° |
| 2026-04-30 12:50 | -25.66229 | 29.92379 | 34234 ft | 385 kts | 261° |
| 2026-04-30 12:50 | -25.66889 | 29.89538 | 33980 ft | 377 kts | 261° |
| 2026-04-30 12:50 | -25.67539 | 29.86731 | 33444 ft | 376 kts | 261° |
| 2026-04-30 12:51 | -25.68188 | 29.83928 | 32895 ft | 375 kts | 261° |
| 2026-04-30 12:51 | -25.68835 | 29.81135 | 32420 ft | 373 kts | 261° |
| 2026-04-30 12:51 | -25.69477 | 29.78359 | 31948 ft | 371 kts | 261° |
| 2026-04-30 12:51 | -25.70116 | 29.75592 | 31481 ft | 370 kts | 261° |
| 2026-04-30 12:52 | -25.70753 | 29.72835 | 31027 ft | 368 kts | 261° |
| 2026-04-30 12:52 | -25.71172 | 29.71016 | 30725 ft | 368 kts | 261° |
| 2026-04-30 12:52 | -25.71805 | 29.68268 | 30252 ft | 367 kts | 261° |
| 2026-04-30 12:52 | -25.72436 | 29.65530 | 29728 ft | 366 kts | 261° |
| 2026-04-30 12:53 | -25.73063 | 29.62804 | 29265 ft | 364 kts | 261° |
| 2026-04-30 12:53 | -25.73686 | 29.60094 | 28841 ft | 361 kts | 261° |
| 2026-04-30 12:53 | -25.74303 | 29.57406 | 28423 ft | 358 kts | 261° |
| 2026-04-30 12:53 | -25.74915 | 29.54737 | 28005 ft | 356 kts | 261° |
| 2026-04-30 12:54 | -25.75523 | 29.52083 | 27611 ft | 354 kts | 261° |
| 2026-04-30 12:54 | -25.76128 | 29.49445 | 27201 ft | 352 kts | 261° |
| 2026-04-30 12:54 | -25.76727 | 29.46825 | 26809 ft | 350 kts | 261° |
| 2026-04-30 12:54 | -25.77324 | 29.44215 | 26422 ft | 348 kts | 261° |
| 2026-04-30 12:55 | -25.77915 | 29.41623 | 26040 ft | 346 kts | 261° |
| 2026-04-30 12:55 | -25.78503 | 29.39049 | 25670 ft | 344 kts | 261° |
| 2026-04-30 12:55 | -25.79089 | 29.36479 | 25287 ft | 342 kts | 261° |
| 2026-04-30 12:55 | -25.79671 | 29.33924 | 24920 ft | 341 kts | 261° |
| 2026-04-30 12:56 | -25.80250 | 29.31380 | 24554 ft | 339 kts | 261° |
| 2026-04-30 12:56 | -25.80826 | 29.28849 | 24193 ft | 338 kts | 261° |
| 2026-04-30 12:56 | -25.81400 | 29.26323 | 23832 ft | 337 kts | 261° |
| 2026-04-30 12:56 | -25.81971 | 29.23811 | 23426 ft | 335 kts | 260° |
| 2026-04-30 12:57 | -25.82539 | 29.21310 | 23048 ft | 333 kts | 260° |
| 2026-04-30 12:57 | -25.83270 | 29.18879 | 22736 ft | 337 kts | 244° |
| 2026-04-30 12:57 | -25.84796 | 29.16833 | 22723 ft | 352 kts | 230° |
| 2026-04-30 12:57 | -25.86559 | 29.14938 | 22581 ft | 352 kts | 230° |
| 2026-04-30 12:58 | -25.88321 | 29.13056 | 22208 ft | 351 kts | 230° |
| 2026-04-30 12:58 | -25.90186 | 29.11300 | 21834 ft | 354 kts | 221° |
| 2026-04-30 12:58 | -25.92219 | 29.09763 | 21479 ft | 353 kts | 219° |
| 2026-04-30 12:58 | -25.94254 | 29.08246 | 21122 ft | 351 kts | 219° |
| 2026-04-30 12:59 | -25.96254 | 29.06755 | 20771 ft | 350 kts | 219° |
| 2026-04-30 12:59 | -25.98268 | 29.05251 | 20422 ft | 348 kts | 219° |
| 2026-04-30 12:59 | -26.00277 | 29.03753 | 20074 ft | 347 kts | 219° |
| 2026-04-30 12:59 | -26.02272 | 29.02262 | 19729 ft | 345 kts | 219° |
| 2026-04-30 13:00 | -26.04261 | 29.00774 | 19391 ft | 344 kts | 219° |
| 2026-04-30 13:00 | -26.06243 | 28.99293 | 19061 ft | 343 kts | 219° |
| 2026-04-30 13:00 | -26.08217 | 28.97819 | 18731 ft | 341 kts | 219° |
| 2026-04-30 13:00 | -26.10185 | 28.96348 | 18376 ft | 340 kts | 219° |
| 2026-04-30 13:01 | -26.12138 | 28.94878 | 18006 ft | 339 kts | 219° |
| 2026-04-30 13:01 | -26.14088 | 28.93404 | 17624 ft | 338 kts | 219° |
| 2026-04-30 13:01 | -26.16033 | 28.91936 | 17233 ft | 337 kts | 219° |
| 2026-04-30 13:01 | -26.17971 | 28.90473 | 16867 ft | 336 kts | 219° |
| 2026-04-30 13:02 | -26.19904 | 28.89015 | 16498 ft | 335 kts | 219° |
| 2026-04-30 13:02 | -26.21838 | 28.87560 | 16134 ft | 335 kts | 219° |
| 2026-04-30 13:02 | -26.23760 | 28.86113 | 15758 ft | 333 kts | 219° |
| 2026-04-30 13:02 | -26.25679 | 28.84666 | 15388 ft | 332 kts | 219° |
| 2026-04-30 13:03 | -26.27581 | 28.83241 | 15006 ft | 326 kts | 219° |
| 2026-04-30 13:03 | -26.29453 | 28.81842 | 14631 ft | 322 kts | 219° |
| 2026-04-30 13:03 | -26.31303 | 28.80450 | 14243 ft | 319 kts | 219° |
| 2026-04-30 13:03 | -26.33110 | 28.79034 | 13788 ft | 315 kts | 228° |
| 2026-04-30 13:04 | -26.34366 | 28.77146 | 13315 ft | 306 kts | 248° |
| 2026-04-30 13:04 | -26.35312 | 28.75024 | 12891 ft | 306 kts | 249° |
| 2026-04-30 13:04 | -26.36239 | 28.72880 | 12455 ft | 308 kts | 249° |
| 2026-04-30 13:04 | -26.37175 | 28.70730 | 12036 ft | 309 kts | 249° |
| 2026-04-30 13:05 | -26.38121 | 28.68574 | 11593 ft | 310 kts | 249° |
| 2026-04-30 13:05 | -26.39066 | 28.66406 | 11188 ft | 311 kts | 249° |
| 2026-04-30 13:05 | -26.40000 | 28.64222 | 10779 ft | 312 kts | 249° |
| 2026-04-30 13:06 | -26.41553 | 28.59743 | 10002 ft | 302 kts | 272° |
| 2026-04-30 13:06 | -26.41191 | 28.57560 | 9850 ft | 276 kts | 293° |
| 2026-04-30 13:06 | -26.40546 | 28.55633 | 9795 ft | 257 kts | 289° |
| 2026-04-30 13:06 | -26.40049 | 28.53758 | 9594 ft | 250 kts | 290° |
| 2026-04-30 13:07 | -26.39544 | 28.51927 | 9476 ft | 242 kts | 290° |
| 2026-04-30 13:07 | -26.39049 | 28.50165 | 9372 ft | 234 kts | 291° |
| 2026-04-30 13:07 | -26.38556 | 28.48436 | 9065 ft | 234 kts | 291° |
| 2026-04-30 13:07 | -26.38062 | 28.46712 | 8756 ft | 234 kts | 291° |
| 2026-04-30 13:08 | -26.37564 | 28.44981 | 8432 ft | 234 kts | 291° |
| 2026-04-30 13:08 | -26.37066 | 28.43262 | 8291 ft | 233 kts | 291° |
| 2026-04-30 13:08 | -26.36568 | 28.41533 | 8276 ft | 236 kts | 291° |
| 2026-04-30 13:08 | -26.36064 | 28.39794 | 8221 ft | 235 kts | 291° |
| 2026-04-30 13:09 | -26.35562 | 28.38062 | 8101 ft | 234 kts | 292° |
| 2026-04-30 13:09 | -26.35063 | 28.36335 | 8064 ft | 234 kts | 291° |
| 2026-04-30 13:09 | -26.34561 | 28.34606 | 8092 ft | 235 kts | 291° |
| 2026-04-30 13:09 | -26.34059 | 28.32874 | 8112 ft | 235 kts | 291° |
| 2026-04-30 13:10 | -26.33556 | 28.31139 | 8108 ft | 235 kts | 291° |
| 2026-04-30 13:10 | -26.33054 | 28.29413 | 8081 ft | 233 kts | 291° |
| 2026-04-30 13:10 | -26.32553 | 28.27692 | 8086 ft | 235 kts | 291° |
| 2026-04-30 13:10 | -26.32050 | 28.25963 | 8079 ft | 233 kts | 291° |
| 2026-04-30 13:11 | -26.31562 | 28.24283 | 8161 ft | 225 kts | 292° |
| 2026-04-30 13:11 | -26.31086 | 28.22644 | 8113 ft | 221 kts | 293° |
| 2026-04-30 13:11 | -26.30535 | 28.21063 | 7984 ft | 216 kts | 307° |
| 2026-04-30 13:11 | -26.29452 | 28.19967 | 7921 ft | 207 kts | 336° |
| 2026-04-30 13:12 | -26.28105 | 28.19639 | 7988 ft | 196 kts | 355° |
| 2026-04-30 13:12 | -26.26749 | 28.19741 | 7948 ft | 197 kts | 6° |
| 2026-04-30 13:12 | -26.25400 | 28.20073 | 7740 ft | 200 kts | 11° |
| 2026-04-30 13:13 | -26.22939 | 28.20855 | 7337 ft | 162 kts | 11° |
| 2026-04-30 13:13 | -26.21908 | 28.21174 | 7134 ft | 149 kts | 11° |
| 2026-04-30 13:13 | -26.19944 | 28.21785 | 6749 ft | 144 kts | 11° |
| 2026-04-30 13:14 | -26.18984 | 28.22085 | 6553 ft | 144 kts | 11° |
| 2026-04-30 13:14 | -26.18020 | 28.22383 | 6356 ft | 144 kts | 11° |
| 2026-04-30 13:14 | -26.16023 | 28.23011 | 5986 ft | 152 kts | 9° |
| 2026-04-30 13:15 | -26.15035 | 28.23319 | 5736 ft | 142 kts | 8° |
| 2026-04-30 13:15 | -26.13447 | 28.23804 | 5553 ft | 66 kts | 14° |
| 2026-04-30 13:15 | -26.13221 | 28.23852 | 5548 ft | 17 kts | 330° |
| 2026-04-30 13:16 | -26.13163 | 28.23789 | 5548 ft | 7 kts | 312° |
| 2026-04-30 13:16 | -26.13142 | 28.23739 | 5548 ft | 8 kts | 277° |
| 2026-04-30 13:16 | -26.13134 | 28.23675 | 5549 ft | 8 kts | 276° |
| 2026-04-30 13:17 | -26.13122 | 28.23550 | 5548 ft | 8 kts | 278° |
| 2026-04-30 13:17 | -26.13115 | 28.23487 | 5549 ft | 9 kts | 277° |
| 2026-04-30 13:17 | -26.13199 | 28.23405 | 5550 ft | 11 kts | 182° |
| 2026-04-30 13:18 | -26.13283 | 28.23396 | 5551 ft | 13 kts | 186° |
| 2026-04-30 13:18 | -26.13465 | 28.23369 | 5549 ft | 11 kts | 188° |
| 2026-04-30 13:18 | -26.13481 | 28.23342 | 5551 ft | 4 kts | 270° |
| 2026-04-30 13:19 | -26.13478 | 28.23302 | 5551 ft | 6 kts | 275° |
| 2026-04-30 13:19 | -26.13476 | 28.23281 | 5551 ft | 0 kts | 276° |